sensor_id;sensor_type;location;lat;lon;timestamp;temperature;humidity
76751;SHT31;65216;51.090;-115.352;2023-07-13T00:00:30;22.76;49.28
76751;SHT31;65216;51.090;-115.352;2023-07-13T00:02:57;22.78;49.29
76751;SHT31;65216;51.090;-115.352;2023-07-13T00:05:24;22.79;49.27
76751;SHT31;65216;51.090;-115.352;2023-07-13T00:07:53;22.80;49.29
76751;SHT31;65216;51.090;-115.352;2023-07-13T00:10:21;22.80;49.45
76751;SHT31;65216;51.090;-115.352;2023-07-13T00:12:53;22.82;49.54
76751;SHT31;65216;51.090;-115.352;2023-07-13T00:15:25;22.82;49.76
76751;SHT31;65216;51.090;-115.352;2023-07-13T00:17:53;22.83;49.76
76751;SHT31;65216;51.090;-115.352;2023-07-13T00:20:21;22.83;49.77
76751;SHT31;65216;51.090;-115.352;2023-07-13T00:22:51;22.84;49.81
76751;SHT31;65216;51.090;-115.352;2023-07-13T00:25:21;22.83;49.66
76751;SHT31;65216;51.090;-115.352;2023-07-13T00:27:52;22.83;49.52
76751;SHT31;65216;51.090;-115.352;2023-07-13T00:30:19;22.83;49.52
76751;SHT31;65216;51.090;-115.352;2023-07-13T00:32:47;22.82;49.46
76751;SHT31;65216;51.090;-115.352;2023-07-13T00:35:14;22.82;49.31
76751;SHT31;65216;51.090;-115.352;2023-07-13T00:37:42;22.82;49.33
76751;SHT31;65216;51.090;-115.352;2023-07-13T00:40:10;22.82;49.16
76751;SHT31;65216;51.090;-115.352;2023-07-13T00:42:42;22.82;49.17
76751;SHT31;65216;51.090;-115.352;2023-07-13T00:47:39;22.80;48.95
76751;SHT31;65216;51.090;-115.352;2023-07-13T00:50:07;22.81;48.87
76751;SHT31;65216;51.090;-115.352;2023-07-13T00:52:40;22.79;48.70
76751;SHT31;65216;51.090;-115.352;2023-07-13T00:55:13;22.78;48.54
76751;SHT31;65216;51.090;-115.352;2023-07-13T00:57:43;22.78;48.47
76751;SHT31;65216;51.090;-115.352;2023-07-13T01:00:10;22.78;48.42
76751;SHT31;65216;51.090;-115.352;2023-07-13T01:02:40;22.77;48.39
76751;SHT31;65216;51.090;-115.352;2023-07-13T01:05:18;22.76;48.41
76751;SHT31;65216;51.090;-115.352;2023-07-13T01:07:50;22.76;48.30
76751;SHT31;65216;51.090;-115.352;2023-07-13T01:10:21;22.75;48.25
76751;SHT31;65216;51.090;-115.352;2023-07-13T01:12:49;22.75;48.21
76751;SHT31;65216;51.090;-115.352;2023-07-13T01:18:18;22.75;48.15
76751;SHT31;65216;51.090;-115.352;2023-07-13T01:20:53;22.74;48.01
76751;SHT31;65216;51.090;-115.352;2023-07-13T01:23:27;22.73;47.98
76751;SHT31;65216;51.090;-115.352;2023-07-13T01:25:57;22.74;47.96
76751;SHT31;65216;51.090;-115.352;2023-07-13T01:28:27;22.73;47.86
76751;SHT31;65216;51.090;-115.352;2023-07-13T01:31:02;22.74;47.80
76751;SHT31;65216;51.090;-115.352;2023-07-13T01:33:30;22.76;47.71
76751;SHT31;65216;51.090;-115.352;2023-07-13T01:35:57;22.75;47.68
76751;SHT31;65216;51.090;-115.352;2023-07-13T01:38:24;22.76;47.62
76751;SHT31;65216;51.090;-115.352;2023-07-13T01:40:52;22.77;47.57
76751;SHT31;65216;51.090;-115.352;2023-07-13T01:43:20;22.77;47.46
76751;SHT31;65216;51.090;-115.352;2023-07-13T01:45:47;22.77;47.43
76751;SHT31;65216;51.090;-115.352;2023-07-13T01:48:14;22.78;47.52
76751;SHT31;65216;51.090;-115.352;2023-07-13T01:50:44;22.77;47.41
76751;SHT31;65216;51.090;-115.352;2023-07-13T01:53:11;22.76;47.34
76751;SHT31;65216;51.090;-115.352;2023-07-13T01:55:38;22.77;47.28
76751;SHT31;65216;51.090;-115.352;2023-07-13T01:58:08;22.76;47.34
76751;SHT31;65216;51.090;-115.352;2023-07-13T02:00:35;22.75;47.23
76751;SHT31;65216;51.090;-115.352;2023-07-13T02:03:05;22.75;47.26
76751;SHT31;65216;51.090;-115.352;2023-07-13T02:05:32;22.75;47.24
76751;SHT31;65216;51.090;-115.352;2023-07-13T02:07:59;22.74;47.16
76751;SHT31;65216;51.090;-115.352;2023-07-13T02:10:26;22.73;47.11
76751;SHT31;65216;51.090;-115.352;2023-07-13T02:12:53;22.74;47.13
76751;SHT31;65216;51.090;-115.352;2023-07-13T02:15:20;22.73;47.20
76751;SHT31;65216;51.090;-115.352;2023-07-13T02:17:47;22.72;47.17
76751;SHT31;65216;51.090;-115.352;2023-07-13T02:20:20;22.72;47.20
76751;SHT31;65216;51.090;-115.352;2023-07-13T02:22:46;22.71;47.17
76751;SHT31;65216;51.090;-115.352;2023-07-13T02:25:14;22.71;47.14
76751;SHT31;65216;51.090;-115.352;2023-07-13T02:27:41;22.70;47.21
76751;SHT31;65216;51.090;-115.352;2023-07-13T02:30:11;22.69;47.19
76751;SHT31;65216;51.090;-115.352;2023-07-13T02:32:38;22.68;47.13
76751;SHT31;65216;51.090;-115.352;2023-07-13T02:35:08;22.68;47.18
76751;SHT31;65216;51.090;-115.352;2023-07-13T02:37:35;22.68;47.22
76751;SHT31;65216;51.090;-115.352;2023-07-13T02:40:05;22.67;47.29
76751;SHT31;65216;51.090;-115.352;2023-07-13T02:42:34;22.66;47.28
76751;SHT31;65216;51.090;-115.352;2023-07-13T02:45:01;22.65;47.28
76751;SHT31;65216;51.090;-115.352;2023-07-13T02:47:31;22.64;47.27
76751;SHT31;65216;51.090;-115.352;2023-07-13T02:50:02;22.62;47.36
76751;SHT31;65216;51.090;-115.352;2023-07-13T02:52:30;22.61;47.46
76751;SHT31;65216;51.090;-115.352;2023-07-13T02:54:57;22.59;47.49
76751;SHT31;65216;51.090;-115.352;2023-07-13T02:57:24;22.58;47.54
76751;SHT31;65216;51.090;-115.352;2023-07-13T02:59:52;22.58;47.56
76751;SHT31;65216;51.090;-115.352;2023-07-13T03:02:22;22.57;47.61
76751;SHT31;65216;51.090;-115.352;2023-07-13T03:04:49;22.57;47.64
76751;SHT31;65216;51.090;-115.352;2023-07-13T03:07:16;22.57;47.57
76751;SHT31;65216;51.090;-115.352;2023-07-13T03:09:42;22.56;47.60
76751;SHT31;65216;51.090;-115.352;2023-07-13T03:12:09;22.55;47.49
76751;SHT31;65216;51.090;-115.352;2023-07-13T03:14:36;22.53;47.34
76751;SHT31;65216;51.090;-115.352;2023-07-13T03:17:03;22.51;47.24
76751;SHT31;65216;51.090;-115.352;2023-07-13T03:19:33;22.50;47.21
76751;SHT31;65216;51.090;-115.352;2023-07-13T03:22:00;22.50;47.25
76751;SHT31;65216;51.090;-115.352;2023-07-13T03:24:32;22.50;47.18
76751;SHT31;65216;51.090;-115.352;2023-07-13T03:27:01;22.48;47.11
76751;SHT31;65216;51.090;-115.352;2023-07-13T03:29:33;22.46;47.02
76751;SHT31;65216;51.090;-115.352;2023-07-13T03:32:03;22.47;46.92
76751;SHT31;65216;51.090;-115.352;2023-07-13T03:34:31;22.45;46.81
76751;SHT31;65216;51.090;-115.352;2023-07-13T03:36:58;22.43;46.80
76751;SHT31;65216;51.090;-115.352;2023-07-13T03:39:28;22.42;46.73
76751;SHT31;65216;51.090;-115.352;2023-07-13T03:41:58;22.40;46.62
76751;SHT31;65216;51.090;-115.352;2023-07-13T03:44:25;22.38;46.53
76751;SHT31;65216;51.090;-115.352;2023-07-13T03:47:01;22.37;46.51
76751;SHT31;65216;51.090;-115.352;2023-07-13T03:49:28;22.36;46.46
76751;SHT31;65216;51.090;-115.352;2023-07-13T03:51:55;22.35;46.42
76751;SHT31;65216;51.090;-115.352;2023-07-13T03:54:22;22.34;46.32
76751;SHT31;65216;51.090;-115.352;2023-07-13T03:56:49;22.34;46.26
76751;SHT31;65216;51.090;-115.352;2023-07-13T03:59:15;22.31;46.18
76751;SHT31;65216;51.090;-115.352;2023-07-13T04:01:43;22.30;46.16
76751;SHT31;65216;51.090;-115.352;2023-07-13T04:04:15;22.27;46.07
76751;SHT31;65216;51.090;-115.352;2023-07-13T04:06:42;22.28;46.02
76751;SHT31;65216;51.090;-115.352;2023-07-13T04:09:09;22.26;46.02
76751;SHT31;65216;51.090;-115.352;2023-07-13T04:11:36;22.25;46.09
76751;SHT31;65216;51.090;-115.352;2023-07-13T04:14:06;22.23;46.10
76751;SHT31;65216;51.090;-115.352;2023-07-13T04:16:32;22.22;46.13
76751;SHT31;65216;51.090;-115.352;2023-07-13T04:18:59;22.20;46.20
76751;SHT31;65216;51.090;-115.352;2023-07-13T04:21:27;22.19;46.25
76751;SHT31;65216;51.090;-115.352;2023-07-13T04:23:56;22.18;46.31
76751;SHT31;65216;51.090;-115.352;2023-07-13T04:26:23;22.17;46.38
76751;SHT31;65216;51.090;-115.352;2023-07-13T04:28:53;22.17;46.42
76751;SHT31;65216;51.090;-115.352;2023-07-13T04:31:20;22.14;46.50
76751;SHT31;65216;51.090;-115.352;2023-07-13T04:33:50;22.14;46.50
76751;SHT31;65216;51.090;-115.352;2023-07-13T04:36:20;22.13;46.50
76751;SHT31;65216;51.090;-115.352;2023-07-13T04:38:47;22.12;46.50
76751;SHT31;65216;51.090;-115.352;2023-07-13T04:41:14;22.11;46.49
76751;SHT31;65216;51.090;-115.352;2023-07-13T04:43:42;22.11;46.39
76751;SHT31;65216;51.090;-115.352;2023-07-13T04:46:12;22.10;46.30
76751;SHT31;65216;51.090;-115.352;2023-07-13T04:48:46;22.08;46.23
76751;SHT31;65216;51.090;-115.352;2023-07-13T04:51:18;22.07;46.22
76751;SHT31;65216;51.090;-115.352;2023-07-13T04:53:45;22.06;46.29
76751;SHT31;65216;51.090;-115.352;2023-07-13T04:56:12;22.05;46.33
76751;SHT31;65216;51.090;-115.352;2023-07-13T04:58:42;22.05;46.45
76751;SHT31;65216;51.090;-115.352;2023-07-13T05:01:09;22.03;46.58
76751;SHT31;65216;51.090;-115.352;2023-07-13T05:03:36;22.03;46.80
76751;SHT31;65216;51.090;-115.352;2023-07-13T05:06:04;22.02;46.95
76751;SHT31;65216;51.090;-115.352;2023-07-13T05:08:39;22.01;47.13
76751;SHT31;65216;51.090;-115.352;2023-07-13T05:11:06;22.00;47.26
76751;SHT31;65216;51.090;-115.352;2023-07-13T05:13:34;22.00;47.37
76751;SHT31;65216;51.090;-115.352;2023-07-13T05:16:03;21.99;47.53
76751;SHT31;65216;51.090;-115.352;2023-07-13T05:18:33;22.00;47.66
76751;SHT31;65216;51.090;-115.352;2023-07-13T05:21:04;21.99;47.80
76751;SHT31;65216;51.090;-115.352;2023-07-13T05:23:34;21.98;47.91
76751;SHT31;65216;51.090;-115.352;2023-07-13T05:26:02;21.98;48.05
76751;SHT31;65216;51.090;-115.352;2023-07-13T05:28:30;21.98;48.11
76751;SHT31;65216;51.090;-115.352;2023-07-13T05:30:58;21.97;48.22
76751;SHT31;65216;51.090;-115.352;2023-07-13T05:33:27;21.97;48.32
76751;SHT31;65216;51.090;-115.352;2023-07-13T05:35:55;21.96;48.42
76751;SHT31;65216;51.090;-115.352;2023-07-13T05:38:22;21.95;48.50
76751;SHT31;65216;51.090;-115.352;2023-07-13T05:40:53;21.95;48.60
76751;SHT31;65216;51.090;-115.352;2023-07-13T05:43:22;21.95;48.68
76751;SHT31;65216;51.090;-115.352;2023-07-13T05:45:51;21.94;48.81
76751;SHT31;65216;51.090;-115.352;2023-07-13T05:48:22;21.93;48.90
76751;SHT31;65216;51.090;-115.352;2023-07-13T05:50:49;21.93;48.96
76751;SHT31;65216;51.090;-115.352;2023-07-13T05:53:19;21.94;49.00
76751;SHT31;65216;51.090;-115.352;2023-07-13T05:55:48;21.93;49.07
76751;SHT31;65216;51.090;-115.352;2023-07-13T05:58:18;21.93;49.10
76751;SHT31;65216;51.090;-115.352;2023-07-13T06:00:48;21.92;49.16
76751;SHT31;65216;51.090;-115.352;2023-07-13T06:03:32;21.92;49.19
76751;SHT31;65216;51.090;-115.352;2023-07-13T06:06:02;21.91;49.24
76751;SHT31;65216;51.090;-115.352;2023-07-13T06:08:31;21.91;49.25
76751;SHT31;65216;51.090;-115.352;2023-07-13T06:11:03;21.91;49.20
76751;SHT31;65216;51.090;-115.352;2023-07-13T06:13:33;21.92;49.22
76751;SHT31;65216;51.090;-115.352;2023-07-13T06:16:00;21.90;49.21
76751;SHT31;65216;51.090;-115.352;2023-07-13T06:18:30;21.91;49.20
76751;SHT31;65216;51.090;-115.352;2023-07-13T06:21:15;21.91;49.20
76751;SHT31;65216;51.090;-115.352;2023-07-13T06:23:46;21.92;49.14
76751;SHT31;65216;51.090;-115.352;2023-07-13T06:26:14;21.90;49.10
76751;SHT31;65216;51.090;-115.352;2023-07-13T06:28:46;21.89;49.04
76751;SHT31;65216;51.090;-115.352;2023-07-13T06:31:13;21.89;49.09
76751;SHT31;65216;51.090;-115.352;2023-07-13T06:33:44;21.89;49.09
76751;SHT31;65216;51.090;-115.352;2023-07-13T06:36:11;21.87;48.97
76751;SHT31;65216;51.090;-115.352;2023-07-13T06:38:40;21.87;48.94
76751;SHT31;65216;51.090;-115.352;2023-07-13T06:41:10;21.88;48.81
76751;SHT31;65216;51.090;-115.352;2023-07-13T06:43:40;21.87;48.76
76751;SHT31;65216;51.090;-115.352;2023-07-13T06:46:10;21.87;48.76
76751;SHT31;65216;51.090;-115.352;2023-07-13T06:48:37;21.85;48.78
76751;SHT31;65216;51.090;-115.352;2023-07-13T06:51:04;21.85;48.81
76751;SHT31;65216;51.090;-115.352;2023-07-13T06:53:34;21.85;48.88
76751;SHT31;65216;51.090;-115.352;2023-07-13T06:56:01;21.84;48.97
76751;SHT31;65216;51.090;-115.352;2023-07-13T06:58:28;21.84;49.08
76751;SHT31;65216;51.090;-115.352;2023-07-13T07:00:55;21.83;49.05
76751;SHT31;65216;51.090;-115.352;2023-07-13T07:03:22;21.84;49.09
76751;SHT31;65216;51.090;-115.352;2023-07-13T07:05:49;21.83;49.07
76751;SHT31;65216;51.090;-115.352;2023-07-13T07:08:16;21.83;49.10
76751;SHT31;65216;51.090;-115.352;2023-07-13T07:10:46;21.83;49.07
76751;SHT31;65216;51.090;-115.352;2023-07-13T07:13:17;21.83;49.08
76751;SHT31;65216;51.090;-115.352;2023-07-13T07:15:43;21.84;49.10
76751;SHT31;65216;51.090;-115.352;2023-07-13T07:18:10;21.84;49.10
76751;SHT31;65216;51.090;-115.352;2023-07-13T07:20:37;21.85;49.09
76751;SHT31;65216;51.090;-115.352;2023-07-13T07:23:04;21.84;49.11
76751;SHT31;65216;51.090;-115.352;2023-07-13T07:25:31;21.84;49.10
76751;SHT31;65216;51.090;-115.352;2023-07-13T07:28:02;21.83;49.13
76751;SHT31;65216;51.090;-115.352;2023-07-13T07:30:29;21.82;49.25
76751;SHT31;65216;51.090;-115.352;2023-07-13T07:32:56;21.81;49.29
76751;SHT31;65216;51.090;-115.352;2023-07-13T07:35:23;21.79;49.20
76751;SHT31;65216;51.090;-115.352;2023-07-13T07:37:50;21.77;49.20
76751;SHT31;65216;51.090;-115.352;2023-07-13T07:40:18;21.76;49.24
76751;SHT31;65216;51.090;-115.352;2023-07-13T07:42:45;21.74;49.27
76751;SHT31;65216;51.090;-115.352;2023-07-13T07:45:13;21.72;49.29
76751;SHT31;65216;51.090;-115.352;2023-07-13T07:47:40;21.69;49.30
76751;SHT31;65216;51.090;-115.352;2023-07-13T07:50:08;21.68;49.30
76751;SHT31;65216;51.090;-115.352;2023-07-13T07:52:37;21.67;49.30
76751;SHT31;65216;51.090;-115.352;2023-07-13T07:55:05;21.65;49.30
76751;SHT31;65216;51.090;-115.352;2023-07-13T07:57:33;21.64;49.31
76751;SHT31;65216;51.090;-115.352;2023-07-13T08:00:04;21.63;49.36
76751;SHT31;65216;51.090;-115.352;2023-07-13T08:02:32;21.61;49.39
76751;SHT31;65216;51.090;-115.352;2023-07-13T08:05:02;21.58;49.44
76751;SHT31;65216;51.090;-115.352;2023-07-13T08:07:32;21.58;49.48
76751;SHT31;65216;51.090;-115.352;2023-07-13T08:09:59;21.57;49.50
76751;SHT31;65216;51.090;-115.352;2023-07-13T08:12:29;21.56;49.52
76751;SHT31;65216;51.090;-115.352;2023-07-13T08:15:03;21.54;49.57
76751;SHT31;65216;51.090;-115.352;2023-07-13T08:17:38;21.54;49.56
76751;SHT31;65216;51.090;-115.352;2023-07-13T08:20:05;21.52;49.57
76751;SHT31;65216;51.090;-115.352;2023-07-13T08:22:37;21.52;49.57
76751;SHT31;65216;51.090;-115.352;2023-07-13T08:25:04;21.50;49.57
76751;SHT31;65216;51.090;-115.352;2023-07-13T08:27:32;21.50;49.56
76751;SHT31;65216;51.090;-115.352;2023-07-13T08:29:59;21.50;49.56
76751;SHT31;65216;51.090;-115.352;2023-07-13T08:32:26;21.48;49.54
76751;SHT31;65216;51.090;-115.352;2023-07-13T08:34:53;21.48;49.60
76751;SHT31;65216;51.090;-115.352;2023-07-13T08:37:20;21.47;49.59
76751;SHT31;65216;51.090;-115.352;2023-07-13T08:39:47;21.45;49.60
76751;SHT31;65216;51.090;-115.352;2023-07-13T08:45:17;21.43;49.61
76751;SHT31;65216;51.090;-115.352;2023-07-13T08:47:52;21.42;49.61
76751;SHT31;65216;51.090;-115.352;2023-07-13T08:50:34;21.42;49.65
76751;SHT31;65216;51.090;-115.352;2023-07-13T08:53:17;21.41;49.66
76751;SHT31;65216;51.090;-115.352;2023-07-13T08:55:45;21.40;49.69
76751;SHT31;65216;51.090;-115.352;2023-07-13T08:58:13;21.40;49.70
76751;SHT31;65216;51.090;-115.352;2023-07-13T09:03:18;21.39;49.70
76751;SHT31;65216;51.090;-115.352;2023-07-13T09:05:56;21.39;49.73
76751;SHT31;65216;51.090;-115.352;2023-07-13T09:08:34;21.37;49.77
76751;SHT31;65216;51.090;-115.352;2023-07-13T09:11:18;21.35;49.80
76751;SHT31;65216;51.090;-115.352;2023-07-13T09:17:21;21.35;49.84
76751;SHT31;65216;51.090;-115.352;2023-07-13T09:20:34;21.34;49.91
76751;SHT31;65216;51.090;-115.352;2023-07-13T09:23:22;21.31;49.98
76751;SHT31;65216;51.090;-115.352;2023-07-13T09:25:58;21.30;50.01
76751;SHT31;65216;51.090;-115.352;2023-07-13T09:28:40;21.29;50.08
76751;SHT31;65216;51.090;-115.352;2023-07-13T09:31:15;21.30;50.09
76751;SHT31;65216;51.090;-115.352;2023-07-13T09:33:59;21.28;50.15
76751;SHT31;65216;51.090;-115.352;2023-07-13T09:36:32;21.27;50.20
76751;SHT31;65216;51.090;-115.352;2023-07-13T09:44:37;21.25;50.29
76751;SHT31;65216;51.090;-115.352;2023-07-13T09:47:28;21.25;50.30
76751;SHT31;65216;51.090;-115.352;2023-07-13T09:50:02;21.25;50.30
76751;SHT31;65216;51.090;-115.352;2023-07-13T09:52:43;21.24;50.31
76751;SHT31;65216;51.090;-115.352;2023-07-13T09:55:29;21.24;50.33
76751;SHT31;65216;51.090;-115.352;2023-07-13T09:58:03;21.23;50.38
76751;SHT31;65216;51.090;-115.352;2023-07-13T10:00:58;21.21;50.40
76751;SHT31;65216;51.090;-115.352;2023-07-13T10:03:33;21.21;50.41
76751;SHT31;65216;51.090;-115.352;2023-07-13T10:06:12;21.20;50.42
76751;SHT31;65216;51.090;-115.352;2023-07-13T10:08:48;21.19;50.47
76751;SHT31;65216;51.090;-115.352;2023-07-13T10:11:18;21.19;50.49
76751;SHT31;65216;51.090;-115.352;2023-07-13T10:13:54;21.18;50.50
76751;SHT31;65216;51.090;-115.352;2023-07-13T10:16:32;21.18;50.52
76751;SHT31;65216;51.090;-115.352;2023-07-13T10:21:55;21.17;50.56
76751;SHT31;65216;51.090;-115.352;2023-07-13T10:24:27;21.17;50.58
76751;SHT31;65216;51.090;-115.352;2023-07-13T10:32:51;21.14;50.69
76751;SHT31;65216;51.090;-115.352;2023-07-13T10:35:19;21.14;50.69
76751;SHT31;65216;51.090;-115.352;2023-07-13T10:40:33;21.13;50.77
76751;SHT31;65216;51.090;-115.352;2023-07-13T10:43:33;21.11;50.82
76751;SHT31;65216;51.090;-115.352;2023-07-13T10:46:09;21.11;50.84
76751;SHT31;65216;51.090;-115.352;2023-07-13T10:48:40;21.11;50.85
76751;SHT31;65216;51.090;-115.352;2023-07-13T10:51:13;21.11;50.82
76751;SHT31;65216;51.090;-115.352;2023-07-13T10:54:33;21.12;50.82
76751;SHT31;65216;51.090;-115.352;2023-07-13T10:56:53;21.12;50.85
76751;SHT31;65216;51.090;-115.352;2023-07-13T10:59:34;21.11;50.86
76751;SHT31;65216;51.090;-115.352;2023-07-13T11:08:02;21.10;50.89
76751;SHT31;65216;51.090;-115.352;2023-07-13T11:13:58;21.11;50.81
76751;SHT31;65216;51.090;-115.352;2023-07-13T11:16:48;21.11;50.80
76751;SHT31;65216;51.090;-115.352;2023-07-13T11:27:37;21.17;50.70
76751;SHT31;65216;51.090;-115.352;2023-07-13T11:30:24;21.17;50.64
76751;SHT31;65216;51.090;-115.352;2023-07-13T11:33:19;21.19;50.60
76751;SHT31;65216;51.090;-115.352;2023-07-13T11:38:36;21.21;50.53
76751;SHT31;65216;51.090;-115.352;2023-07-13T11:41:07;21.23;50.50
76751;SHT31;65216;51.090;-115.352;2023-07-13T11:43:50;21.24;50.45
76751;SHT31;65216;51.090;-115.352;2023-07-13T11:46:23;21.24;50.43
76751;SHT31;65216;51.090;-115.352;2023-07-13T11:48:54;21.24;50.40
76751;SHT31;65216;51.090;-115.352;2023-07-13T11:54:01;21.26;50.39
76751;SHT31;65216;51.090;-115.352;2023-07-13T11:57:02;21.25;50.40
76751;SHT31;65216;51.090;-115.352;2023-07-13T11:59:48;21.25;50.40
76751;SHT31;65216;51.090;-115.352;2023-07-13T12:02:19;21.25;50.40
76751;SHT31;65216;51.090;-115.352;2023-07-13T12:05:04;21.25;50.37
76751;SHT31;65216;51.090;-115.352;2023-07-13T12:07:35;21.24;50.38
76751;SHT31;65216;51.090;-115.352;2023-07-13T12:15:35;21.24;50.40
76751;SHT31;65216;51.090;-115.352;2023-07-13T12:18:14;21.24;50.41
76751;SHT31;65216;51.090;-115.352;2023-07-13T12:20:49;21.24;50.40
76751;SHT31;65216;51.090;-115.352;2023-07-13T12:25:52;21.25;50.40
76751;SHT31;65216;51.090;-115.352;2023-07-13T12:28:30;21.25;50.40
76751;SHT31;65216;51.090;-115.352;2023-07-13T12:31:06;21.25;50.40
76751;SHT31;65216;51.090;-115.352;2023-07-13T12:33:55;21.25;50.41
76751;SHT31;65216;51.090;-115.352;2023-07-13T12:36:24;21.24;50.47
76751;SHT31;65216;51.090;-115.352;2023-07-13T12:38:54;21.23;50.49
76751;SHT31;65216;51.090;-115.352;2023-07-13T12:41:32;21.23;50.51
76751;SHT31;65216;51.090;-115.352;2023-07-13T12:43:59;21.23;50.52
76751;SHT31;65216;51.090;-115.352;2023-07-13T12:46:29;21.23;50.51
76751;SHT31;65216;51.090;-115.352;2023-07-13T12:48:57;21.24;50.52
76751;SHT31;65216;51.090;-115.352;2023-07-13T12:51:27;21.23;50.52
76751;SHT31;65216;51.090;-115.352;2023-07-13T12:53:57;21.23;50.50
76751;SHT31;65216;51.090;-115.352;2023-07-13T12:56:44;21.23;50.50
76751;SHT31;65216;51.090;-115.352;2023-07-13T12:59:18;21.23;50.51
76751;SHT31;65216;51.090;-115.352;2023-07-13T13:01:48;21.23;50.50
76751;SHT31;65216;51.090;-115.352;2023-07-13T13:04:16;21.24;50.51
76751;SHT31;65216;51.090;-115.352;2023-07-13T13:06:47;21.24;50.52
76751;SHT31;65216;51.090;-115.352;2023-07-13T13:09:15;21.23;50.51
76751;SHT31;65216;51.090;-115.352;2023-07-13T13:11:45;21.23;50.52
76751;SHT31;65216;51.090;-115.352;2023-07-13T13:14:12;21.24;50.49
76751;SHT31;65216;51.090;-115.352;2023-07-13T13:16:49;21.24;50.46
76751;SHT31;65216;51.090;-115.352;2023-07-13T13:19:19;21.24;50.48
76751;SHT31;65216;51.090;-115.352;2023-07-13T13:21:54;21.24;50.49
76751;SHT31;65216;51.090;-115.352;2023-07-13T13:24:25;21.24;50.48
76751;SHT31;65216;51.090;-115.352;2023-07-13T13:26:57;21.24;50.47
76751;SHT31;65216;51.090;-115.352;2023-07-13T13:29:24;21.24;50.46
76751;SHT31;65216;51.090;-115.352;2023-07-13T13:31:52;21.23;50.50
76751;SHT31;65216;51.090;-115.352;2023-07-13T13:34:21;21.22;50.50
76751;SHT31;65216;51.090;-115.352;2023-07-13T13:36:49;21.24;50.49
76751;SHT31;65216;51.090;-115.352;2023-07-13T13:41:52;21.24;50.50
76751;SHT31;65216;51.090;-115.352;2023-07-13T13:44:23;21.24;50.50
76751;SHT31;65216;51.090;-115.352;2023-07-13T13:46:53;21.24;50.49
76751;SHT31;65216;51.090;-115.352;2023-07-13T13:49:25;21.23;50.51
76751;SHT31;65216;51.090;-115.352;2023-07-13T13:51:57;21.24;50.50
76751;SHT31;65216;51.090;-115.352;2023-07-13T13:54:24;21.24;50.51
76751;SHT31;65216;51.090;-115.352;2023-07-13T13:56:52;21.24;50.50
76751;SHT31;65216;51.090;-115.352;2023-07-13T13:59:25;21.24;50.52
76751;SHT31;65216;51.090;-115.352;2023-07-13T14:01:52;21.26;50.50
76751;SHT31;65216;51.090;-115.352;2023-07-13T14:04:21;21.25;50.52
76751;SHT31;65216;51.090;-115.352;2023-07-13T14:06:48;21.24;50.52
76751;SHT31;65216;51.090;-115.352;2023-07-13T14:09:16;21.25;50.53
76751;SHT31;65216;51.090;-115.352;2023-07-13T14:11:45;21.25;50.59
76751;SHT31;65216;51.090;-115.352;2023-07-13T14:14:16;21.24;50.57
76751;SHT31;65216;51.090;-115.352;2023-07-13T14:16:51;21.24;50.59
76751;SHT31;65216;51.090;-115.352;2023-07-13T14:19:22;21.24;50.62
76751;SHT31;65216;51.090;-115.352;2023-07-13T14:21:50;21.24;50.61
76751;SHT31;65216;51.090;-115.352;2023-07-13T14:24:19;21.24;50.62
76751;SHT31;65216;51.090;-115.352;2023-07-13T14:26:46;21.23;50.61
76751;SHT31;65216;51.090;-115.352;2023-07-13T14:29:15;21.22;50.66
76751;SHT31;65216;51.090;-115.352;2023-07-13T14:31:45;21.22;50.67
76751;SHT31;65216;51.090;-115.352;2023-07-13T14:34:17;21.22;50.69
76751;SHT31;65216;51.090;-115.352;2023-07-13T14:36:45;21.22;50.69
76751;SHT31;65216;51.090;-115.352;2023-07-13T14:39:18;21.23;50.63
76751;SHT31;65216;51.090;-115.352;2023-07-13T14:41:49;21.22;50.67
76751;SHT31;65216;51.090;-115.352;2023-07-13T14:44:29;21.23;50.69
76751;SHT31;65216;51.090;-115.352;2023-07-13T14:46:59;21.24;50.70
76751;SHT31;65216;51.090;-115.352;2023-07-13T14:52:10;21.24;50.71
76751;SHT31;65216;51.090;-115.352;2023-07-13T14:54:46;21.25;50.71
76751;SHT31;65216;51.090;-115.352;2023-07-13T14:57:15;21.25;50.70
76751;SHT31;65216;51.090;-115.352;2023-07-13T15:00:04;21.26;50.69
76751;SHT31;65216;51.090;-115.352;2023-07-13T15:02:43;21.29;50.69
76751;SHT31;65216;51.090;-115.352;2023-07-13T15:05:24;21.30;50.71
76751;SHT31;65216;51.090;-115.352;2023-07-13T15:07:56;21.32;50.70
76751;SHT31;65216;51.090;-115.352;2023-07-13T15:10:27;21.33;50.70
76751;SHT31;65216;51.090;-115.352;2023-07-13T15:13:14;21.35;50.70
76751;SHT31;65216;51.090;-115.352;2023-07-13T15:15:47;21.38;50.74
76751;SHT31;65216;51.090;-115.352;2023-07-13T15:18:21;21.40;50.63
76751;SHT31;65216;51.090;-115.352;2023-07-13T15:20:52;21.41;50.61
76751;SHT31;65216;51.090;-115.352;2023-07-13T15:23:22;21.42;50.63
76751;SHT31;65216;51.090;-115.352;2023-07-13T15:25:51;21.42;50.62
76751;SHT31;65216;51.090;-115.352;2023-07-13T15:28:18;21.43;50.60
76751;SHT31;65216;51.090;-115.352;2023-07-13T15:30:48;21.45;50.60
76751;SHT31;65216;51.090;-115.352;2023-07-13T15:35:59;21.47;50.57
76751;SHT31;65216;51.090;-115.352;2023-07-13T15:38:29;21.47;50.59
76751;SHT31;65216;51.090;-115.352;2023-07-13T15:41:00;21.47;50.65
76751;SHT31;65216;51.090;-115.352;2023-07-13T15:43:28;21.47;50.71
76751;SHT31;65216;51.090;-115.352;2023-07-13T15:46:01;21.48;50.77
76751;SHT31;65216;51.090;-115.352;2023-07-13T15:48:31;21.49;50.82
76751;SHT31;65216;51.090;-115.352;2023-07-13T15:51:00;21.50;50.84
76751;SHT31;65216;51.090;-115.352;2023-07-13T15:53:33;21.51;50.94
76751;SHT31;65216;51.090;-115.352;2023-07-13T15:56:10;21.50;51.05
76751;SHT31;65216;51.090;-115.352;2023-07-13T15:58:45;21.52;51.20
76751;SHT31;65216;51.090;-115.352;2023-07-13T16:01:13;21.52;51.21
76751;SHT31;65216;51.090;-115.352;2023-07-13T16:03:40;21.54;51.16
76751;SHT31;65216;51.090;-115.352;2023-07-13T16:06:20;21.55;51.14
76751;SHT31;65216;51.090;-115.352;2023-07-13T16:09:01;21.55;51.17
76751;SHT31;65216;51.090;-115.352;2023-07-13T16:11:37;21.57;51.24
76751;SHT31;65216;51.090;-115.352;2023-07-13T16:14:08;21.59;51.24
76751;SHT31;65216;51.090;-115.352;2023-07-13T16:16:42;21.61;51.24
76751;SHT31;65216;51.090;-115.352;2023-07-13T16:22:03;21.63;51.17
76751;SHT31;65216;51.090;-115.352;2023-07-13T16:24:41;21.65;51.17